Terminal Aerodrome Forecast
Issued by NWS Tampa Bay Area, FL

Home | Current Version | Previous Version | Text Only | Print | Product List | Glossary On
Versions: 1 2 3 4 5 6 7 8 9 10 11 12 13 14 15 16 17
000
FTUS42 KTBW 211730
TAFSRQ
TAF
KSRQ 211730Z 2118/2218 22007KT P6SM VCTS SCT030CB SCT250
     FM212100 25008KT P6SM VCTS FEW030CB BKN100
     FM220000 23005KT P6SM SCT040 BKN100
     FM220200 VRB04KT P6SM SCT060 BKN250
     FM221500 18004KT P6SM VCTS BKN025CB BKN250=

USA.gov is the U.S. government's official web portal to all federal, state and local government web resources and services.